Terminal Aerodrome Forecast
Issued by NWS Medford, OR

Home | Current Version | Previous Version | Text Only | Print | Product List | Glossary On
Versions: 1 2 3 4 5 6 7 8 9 10 11 12 13 14 15 16 17 18
000
FTUS46 KMFR 230500 CCA
TAFMFR
TAF COR
KMFR 230553Z 2306/2406 VRB03KT P6SM FEW050 SCT090
     FM230900 VRB03KT P6SM SCT010 OVC020
     FM231700 31006KT P6SM -SHRA BKN040 OVC060
     FM232100 31012G19KT P6SM BKN050=

USA.gov is the U.S. government's official web portal to all federal, state and local government web resources and services.